TimeCST,TemperatureF,Dew PointF,Humidity,Sea Level PressureIn,VisibilityMPH,Wind Direction,Wind SpeedMPH,Gust SpeedMPH,PrecipitationIn,Events,Conditions,WindDirDegrees,DateUTC
12:15 AM,28.4,12.2,51,30.28,10.0,NE,4.6,-,N/A,,Clear,50,2013-02-20 06:15:00
12:35 AM,28.4,12.2,51,30.29,10.0,Calm,Calm,-,N/A,,Clear,0,2013-02-20 06:35:00
12:55 AM,28.4,14.0,55,30.27,10.0,NE,4.6,-,N/A,,Clear,50,2013-02-20 06:55:00
1:15 AM,28.4,12.2,51,30.28,10.0,NE,4.6,-,N/A,,Clear,50,2013-02-20 07:15:00
1:35 AM,28.4,12.2,51,30.27,10.0,NNE,6.9,-,N/A,,Clear,30,2013-02-20 07:35:00
1:55 AM,28.4,12.2,51,30.27,10.0,NE,5.8,-,N/A,,Clear,40,2013-02-20 07:55:00
2:15 AM,28.4,12.2,51,30.28,10.0,NE,4.6,-,N/A,,Clear,40,2013-02-20 08:15:00
2:35 AM,28.4,12.2,51,30.27,10.0,NE,4.6,-,N/A,,Clear,40,2013-02-20 08:35:00
2:55 AM,26.6,12.2,55,30.26,10.0,NE,5.8,-,N/A,,Clear,50,2013-02-20 08:55:00
3:15 AM,26.6,12.2,55,30.25,10.0,ENE,6.9,-,N/A,,Clear,60,2013-02-20 09:15:00
3:35 AM,26.6,12.2,55,30.25,10.0,ENE,10.4,-,N/A,,Clear,60,2013-02-20 09:35:00
3:55 AM,26.6,10.4,51,30.25,10.0,NE,10.4,-,N/A,,Clear,50,2013-02-20 09:55:00
4:35 AM,26.6,10.4,51,30.26,10.0,ENE,10.4,-,N/A,,Clear,70,2013-02-20 10:35:00
5:15 AM,26.6,12.2,55,30.27,10.0,East,5.8,-,N/A,,Clear,80,2013-02-20 11:15:00
5:35 AM,26.6,10.4,51,30.26,10.0,East,8.1,-,N/A,,Clear,80,2013-02-20 11:35:00
5:55 AM,26.6,10.4,51,30.26,10.0,East,5.8,-,N/A,,Clear,80,2013-02-20 11:55:00
6:15 AM,26.6,10.4,51,30.26,10.0,East,8.1,-,N/A,,Clear,80,2013-02-20 12:15:00
6:35 AM,26.6,10.4,51,30.27,10.0,East,8.1,-,N/A,,Clear,80,2013-02-20 12:35:00
6:55 AM,26.6,10.4,51,30.27,10.0,East,5.8,-,N/A,,Scattered Clouds,90,2013-02-20 12:55:00
7:15 AM,26.6,12.2,55,30.28,10.0,East,5.8,-,N/A,,Scattered Clouds,100,2013-02-20 13:15:00
7:35 AM,26.6,10.4,51,30.27,10.0,East,8.1,-,N/A,,Overcast,100,2013-02-20 13:35:00
7:55 AM,26.6,10.4,51,30.28,10.0,ESE,8.1,-,N/A,,Overcast,110,2013-02-20 13:55:00
8:15 AM,26.6,12.2,55,30.28,10.0,ESE,8.1,-,N/A,,Overcast,110,2013-02-20 14:15:00
8:35 AM,28.4,10.4,47,30.29,10.0,ESE,5.8,-,N/A,,Overcast,120,2013-02-20 14:35:00
8:55 AM,28.4,10.4,47,30.28,10.0,East,6.9,-,N/A,,Overcast,100,2013-02-20 14:55:00
9:35 AM,28.4,10.4,47,30.27,10.0,East,9.2,-,N/A,,Overcast,80,2013-02-20 15:35:00
9:55 AM,28.4,10.4,47,30.27,10.0,East,8.1,-,N/A,,Overcast,80,2013-02-20 15:55:00
10:15 AM,30.2,10.4,44,30.26,10.0,ENE,8.1,-,N/A,,Overcast,70,2013-02-20 16:15:00
10:35 AM,30.2,10.4,44,30.27,10.0,ENE,4.6,-,N/A,,Overcast,60,2013-02-20 16:35:00
10:55 AM,30.2,12.2,47,30.28,10.0,NE,4.6,-,N/A,,Overcast,50,2013-02-20 16:55:00
11:15 AM,30.2,12.2,47,30.29,10.0,East,3.5,-,N/A,,Overcast,80,2013-02-20 17:15:00
11:35 AM,30.2,12.2,47,30.28,10.0,ESE,5.8,-,N/A,,Overcast,110,2013-02-20 17:35:00
11:55 AM,30.2,14.0,51,30.26,10.0,East,8.1,-,N/A,,Overcast,100,2013-02-20 17:55:00
12:15 PM,30.2,17.6,60,30.23,10.0,ESE,10.4,-,N/A,Snow,Light Snow,120,2013-02-20 18:15:00
12:35 PM,30.2,17.6,60,30.25,5.0,SE,8.1,-,N/A,Snow,Light Snow,140,2013-02-20 18:35:00
12:55 PM,28.4,19.4,69,30.22,2.5,ESE,9.2,-,N/A,Snow,Light Snow,110,2013-02-20 18:55:00
1:15 PM,28.4,21.2,74,30.21,3.0,ESE,5.8,-,N/A,Snow,Light Snow,120,2013-02-20 19:15:00
1:35 PM,30.2,21.2,69,30.19,7.0,SE,6.9,-,N/A,Rain,Freezing Rain,140,2013-02-20 19:35:00
1:55 PM,30.2,23.0,75,30.18,10.0,East,4.6,-,N/A,,Overcast,100,2013-02-20 19:55:00
2:15 PM,30.2,23.0,75,30.17,10.0,ENE,5.8,-,N/A,,Overcast,70,2013-02-20 20:15:00
2:55 PM,32.0,23.0,69,30.15,10.0,ENE,6.9,-,N/A,,Overcast,60,2013-02-20 20:55:00
3:15 PM,32.0,17.6,55,30.16,10.0,NE,6.9,-,N/A,,Overcast,50,2013-02-20 21:15:00
3:35 PM,32.0,17.6,55,30.15,10.0,ENE,10.4,-,N/A,,Overcast,70,2013-02-20 21:35:00
3:55 PM,32.0,12.2,44,30.14,10.0,East,12.7,-,N/A,,Overcast,80,2013-02-20 21:55:00
4:15 PM,32.0,10.4,41,30.14,10.0,East,9.2,-,N/A,,Overcast,80,2013-02-20 22:15:00
4:35 PM,32.0,12.2,44,30.13,10.0,East,9.2,-,N/A,,Overcast,90,2013-02-20 22:35:00
4:55 PM,32.0,12.2,44,30.12,10.0,East,11.5,-,N/A,,Overcast,80,2013-02-20 22:55:00
5:15 PM,32.0,12.2,44,30.12,10.0,East,9.2,-,N/A,,Overcast,80,2013-02-20 23:15:00
5:35 PM,32.0,12.2,44,30.12,10.0,East,8.1,-,N/A,,Overcast,80,2013-02-20 23:35:00
5:55 PM,32.0,12.2,44,30.11,10.0,East,11.5,-,N/A,,Overcast,100,2013-02-20 23:55:00
6:15 PM,32.0,10.4,41,30.10,10.0,East,11.5,-,N/A,,Overcast,90,2013-02-21 00:15:00
6:35 PM,32.0,10.4,41,30.10,10.0,East,9.2,-,N/A,,Overcast,100,2013-02-21 00:35:00
6:55 PM,32.0,12.2,44,30.10,10.0,ESE,11.5,-,N/A,,Overcast,110,2013-02-21 00:55:00
7:35 PM,32.0,12.2,44,30.09,10.0,East,9.2,-,N/A,,Overcast,100,2013-02-21 01:35:00
7:55 PM,32.0,12.2,44,30.09,10.0,East,10.4,17.3,N/A,,Overcast,90,2013-02-21 01:55:00
8:15 PM,32.0,12.2,44,30.09,10.0,East,15.0,-,N/A,,Overcast,100,2013-02-21 02:15:00
8:35 PM,32.0,12.2,44,30.09,10.0,East,11.5,18.4,N/A,,Overcast,100,2013-02-21 02:35:00
8:55 PM,32.0,12.2,44,30.08,10.0,East,10.4,-,N/A,,Overcast,90,2013-02-21 02:55:00
9:35 PM,32.0,12.2,44,30.08,10.0,East,12.7,18.4,N/A,,Overcast,90,2013-02-21 03:35:00
9:55 PM,32.0,12.2,44,30.08,10.0,East,13.8,21.9,N/A,,Overcast,100,2013-02-21 03:55:00
10:15 PM,32.0,12.2,44,30.08,10.0,ESE,17.3,23.0,N/A,,Overcast,110,2013-02-21 04:15:00
10:35 PM,32.0,12.2,44,30.08,10.0,ESE,16.1,24.2,N/A,,Light Drizzle,110,2013-02-21 04:35:00
10:55 PM,32.0,15.8,51,30.08,10.0,ESE,16.1,23.0,N/A,Rain,Light Rain,110,2013-02-21 04:55:00
11:15 PM,30.2,17.6,60,30.08,10.0,ESE,13.8,21.9,N/A,,Freezing Rain,110,2013-02-21 05:15:00
11:35 PM,30.2,17.6,60,30.06,10.0,East,12.7,18.4,N/A,Rain,Freezing Rain,100,2013-02-21 05:35:00
11:55 PM,30.2,17.6,60,30.07,10.0,ESE,15.0,20.7,N/A,,Freezing Rain,110,2013-02-21 05:55:00